Time;durP1;ratioP1;P1;durP2;ratioP2;P2;SDS_P1;SDS_P2;PMS_P1;PMS_P2;Temp;Humidity;BMP_temperature;BMP_pressure;BME280_temperature;BME280_humidity;BME280_pressure;Samples;Min_cycle;Max_cycle;Signal;HPM_P1;HPM_P2
2023/07/02 00:00:30;;;;;;;9.30;5.13;;;;;;;;;;5033916;28;20489;-79
2023/07/02 00:02:57;;;;;;;6.67;4.50;;;;;;;;;;5033406;28;20445;-81
2023/07/02 00:05:23;;;;;;;7.20;4.53;;;;;;;;;;5032262;28;21083;-80
2023/07/02 00:07:49;;;;;;;7.43;4.77;;;;;;;;;;5031429;28;20452;-82
2023/07/02 00:10:16;;;;;;;4.10;3.70;;;;;;;;;;5032320;28;20503;-83
2023/07/02 00:12:44;;;;;;;11.20;4.97;;;;;;;;;;5019499;28;20488;-81
2023/07/02 00:15:11;;;;;;;9.60;4.23;;;;;;;;;;5032645;28;20538;-80
2023/07/02 00:17:39;;;;;;;6.23;3.90;;;;;;;;;;5027732;28;20450;-80
2023/07/02 00:20:08;;;;;;;5.60;4.57;;;;;;;;;;5021882;28;20475;-80
2023/07/02 00:22:36;;;;;;;7.60;4.10;;;;;;;;;;5031912;28;20953;-81
2023/07/02 00:25:04;;;;;;;8.83;5.00;;;;;;;;;;5033755;28;20471;-80
2023/07/02 00:27:30;;;;;;;6.27;4.40;;;;;;;;;;5025244;28;20470;-82
2023/07/02 00:30:01;;;;;;;6.37;4.20;;;;;;;;;;5031705;28;20471;-82
2023/07/02 00:32:27;;;;;;;4.87;4.33;;;;;;;;;;5027234;28;20455;-82
2023/07/02 00:34:54;;;;;;;8.40;4.40;;;;;;;;;;5031788;28;20447;-82
2023/07/02 00:37:20;;;;;;;6.90;4.50;;;;;;;;;;5031079;28;20477;-82
2023/07/02 00:39:47;;;;;;;5.00;4.40;;;;;;;;;;5033039;28;20480;-80
2023/07/02 00:42:14;;;;;;;5.23;4.73;;;;;;;;;;5033840;28;20428;-80
2023/07/02 00:44:43;;;;;;;7.83;5.47;;;;;;;;;;5030510;28;20473;-80
2023/07/02 00:47:11;;;;;;;10.03;4.53;;;;;;;;;;5028511;28;20965;-80
2023/07/02 00:49:40;;;;;;;11.03;6.40;;;;;;;;;;5026201;28;20480;-82
2023/07/02 00:52:06;;;;;;;5.43;4.70;;;;;;;;;;5024476;28;20564;-82
2023/07/02 00:54:33;;;;;;;5.70;4.60;;;;;;;;;;5033303;28;20475;-82
2023/07/02 00:57:03;;;;;;;4.67;4.20;;;;;;;;;;5024985;28;20457;-82
2023/07/02 00:59:29;;;;;;;6.03;5.10;;;;;;;;;;5028747;28;20469;-82
2023/07/02 01:01:56;;;;;;;6.77;4.70;;;;;;;;;;5024944;28;20461;-82
2023/07/02 01:04:27;;;;;;;4.33;4.03;;;;;;;;;;5033036;28;21010;-82
2023/07/02 01:06:57;;;;;;;8.13;5.27;;;;;;;;;;5030511;28;20464;-82
2023/07/02 01:09:23;;;;;;;9.40;5.07;;;;;;;;;;5033663;28;20465;-82
2023/07/02 01:11:51;;;;;;;8.20;5.30;;;;;;;;;;5032575;28;20481;-81
2023/07/02 01:14:19;;;;;;;11.00;6.37;;;;;;;;;;5033031;28;20469;-82
2023/07/02 01:16:48;;;;;;;7.93;4.57;;;;;;;;;;5025068;28;20472;-82
2023/07/02 01:19:19;;;;;;;7.53;5.00;;;;;;;;;;5031541;28;20555;-82
2023/07/02 01:21:47;;;;;;;9.10;5.00;;;;;;;;;;5020280;28;20415;-81
2023/07/02 01:24:15;;;;;;;6.40;5.13;;;;;;;;;;5029936;28;20469;-81
2023/07/02 01:26:42;;;;;;;7.10;4.40;;;;;;;;;;5037147;28;20463;-81
2023/07/02 01:29:15;;;;;;;6.73;4.40;;;;;;;;;;5028200;28;20477;-82
2023/07/02 01:31:41;;;;;;;8.67;5.27;;;;;;;;;;5024864;28;20477;-82
2023/07/02 01:34:09;;;;;;;9.70;5.07;;;;;;;;;;5028723;28;20468;-82
2023/07/02 01:36:35;;;;;;;8.90;4.83;;;;;;;;;;5035576;28;20456;-80
2023/07/02 01:39:03;;;;;;;15.77;5.20;;;;;;;;;;5026725;28;20475;-81
2023/07/02 01:41:30;;;;;;;6.27;4.70;;;;;;;;;;5036874;28;20507;-83
2023/07/02 01:43:56;;;;;;;8.13;5.17;;;;;;;;;;5030299;28;20439;-82
2023/07/02 01:46:23;;;;;;;12.53;5.07;;;;;;;;;;5037139;28;20453;-82
2023/07/02 01:48:50;;;;;;;12.77;5.33;;;;;;;;;;5031497;28;20473;-82
2023/07/02 01:51:17;;;;;;;5.27;4.77;;;;;;;;;;5034454;28;20460;-83
2023/07/02 01:53:43;;;;;;;7.27;5.27;;;;;;;;;;5021717;28;20448;-82
2023/07/02 01:56:11;;;;;;;8.23;5.00;;;;;;;;;;5031820;28;20428;-82
2023/07/02 01:58:37;;;;;;;7.20;5.30;;;;;;;;;;5026572;28;20470;-81
2023/07/02 02:01:05;;;;;;;8.77;4.93;;;;;;;;;;5036470;28;20452;-82
2023/07/02 02:03:31;;;;;;;6.00;5.40;;;;;;;;;;5029395;28;20448;-82
2023/07/02 02:05:57;;;;;;;8.43;5.60;;;;;;;;;;5052699;28;20462;-81
2023/07/02 02:08:24;;;;;;;6.03;5.43;;;;;;;;;;5052536;28;20464;-82
2023/07/02 02:10:50;;;;;;;8.00;4.67;;;;;;;;;;5055434;28;21078;-82
2023/07/02 02:13:18;;;;;;;15.27;5.90;;;;;;;;;;5051084;28;20483;-81
2023/07/02 02:15:44;;;;;;;11.80;5.57;;;;;;;;;;5049243;28;20483;-81
2023/07/02 02:18:10;;;;;;;9.43;5.80;;;;;;;;;;5048097;28;20855;-82
2023/07/02 02:20:37;;;;;;;7.80;5.70;;;;;;;;;;5052385;28;20482;-82
2023/07/02 02:23:03;;;;;;;11.37;6.20;;;;;;;;;;5051625;28;20456;-81
2023/07/02 02:25:29;;;;;;;10.20;6.77;;;;;;;;;;5047397;28;20450;-81
2023/07/02 02:27:56;;;;;;;10.23;7.30;;;;;;;;;;5047668;28;20439;-81
2023/07/02 02:30:23;;;;;;;9.70;5.60;;;;;;;;;;5055461;28;20475;-80
2023/07/02 02:32:51;;;;;;;12.60;7.10;;;;;;;;;;5048990;28;20462;-80
2023/07/02 02:35:19;;;;;;;16.23;6.97;;;;;;;;;;5053303;28;20508;-80
2023/07/02 02:37:46;;;;;;;8.50;5.93;;;;;;;;;;5054101;28;20464;-81
2023/07/02 02:40:12;;;;;;;12.73;6.77;;;;;;;;;;5049594;28;20476;-81
2023/07/02 02:42:39;;;;;;;11.63;7.30;;;;;;;;;;5046479;28;20471;-80
2023/07/02 02:45:06;;;;;;;10.33;6.40;;;;;;;;;;5046017;28;20471;-81
2023/07/02 02:47:34;;;;;;;11.47;6.90;;;;;;;;;;5048181;28;21079;-81
2023/07/02 02:50:00;;;;;;;10.93;6.37;;;;;;;;;;5054520;28;20471;-81
2023/07/02 02:52:26;;;;;;;10.10;6.60;;;;;;;;;;5053104;28;20484;-81
2023/07/02 02:54:53;;;;;;;12.30;6.23;;;;;;;;;;5055204;28;20479;-81
2023/07/02 02:57:19;;;;;;;15.57;7.50;;;;;;;;;;5054807;28;20480;-80
2023/07/02 02:59:48;;;;;;;13.23;7.67;;;;;;;;;;5053966;28;20471;-80
2023/07/02 03:02:14;;;;;;;14.10;6.90;;;;;;;;;;5052543;28;20484;-81
2023/07/02 03:04:44;;;;;;;9.40;6.10;;;;;;;;;;5054670;28;20490;-81
2023/07/02 03:07:10;;;;;;;15.67;7.07;;;;;;;;;;5055814;28;20490;-81
2023/07/02 03:09:37;;;;;;;14.53;7.37;;;;;;;;;;5050125;28;20461;-81
2023/07/02 03:12:04;;;;;;;15.53;6.57;;;;;;;;;;5055492;28;20479;-81
2023/07/02 03:14:30;;;;;;;12.10;7.47;;;;;;;;;;5050853;28;20468;-80
2023/07/02 03:16:56;;;;;;;18.90;8.47;;;;;;;;;;5028525;28;20459;-81
2023/07/02 03:19:25;;;;;;;13.10;7.13;;;;;;;;;;5041879;28;20450;-80
2023/07/02 03:21:52;;;;;;;16.30;6.50;;;;;;;;;;5031918;28;20822;-80
2023/07/02 03:24:19;;;;;;;11.90;6.57;;;;;;;;;;5028955;28;20833;-81
2023/07/02 03:26:45;;;;;;;17.20;7.03;;;;;;;;;;5028663;28;20506;-80
2023/07/02 03:29:12;;;;;;;14.53;6.87;;;;;;;;;;5027552;28;20463;-80
2023/07/02 03:31:38;;;;;;;17.13;7.13;;;;;;;;;;5022374;28;20453;-81
2023/07/02 03:34:07;;;;;;;17.13;8.60;;;;;;;;;;5025697;28;20448;-80
2023/07/02 03:36:33;;;;;;;13.00;8.00;;;;;;;;;;5034981;28;20426;-80
2023/07/02 03:39:01;;;;;;;20.73;9.00;;;;;;;;;;5025668;28;21000;-80
2023/07/02 03:41:28;;;;;;;14.73;8.17;;;;;;;;;;5028225;28;20552;-80
2023/07/02 03:43:55;;;;;;;25.10;8.63;;;;;;;;;;5030897;28;20968;-82
2023/07/02 03:46:21;;;;;;;16.50;8.00;;;;;;;;;;5031999;28;20456;-82
2023/07/02 03:48:48;;;;;;;24.87;8.30;;;;;;;;;;5031868;28;20461;-82
2023/07/02 03:51:15;;;;;;;21.07;8.87;;;;;;;;;;5032249;28;20427;-80
2023/07/02 03:53:41;;;;;;;15.17;7.50;;;;;;;;;;5029167;28;20477;-81
2023/07/02 03:56:09;;;;;;;17.60;8.37;;;;;;;;;;5034701;28;20483;-82
2023/07/02 03:58:35;;;;;;;15.87;9.10;;;;;;;;;;5032926;28;20478;-80
2023/07/02 04:01:02;;;;;;;18.40;9.17;;;;;;;;;;5030104;28;20830;-81
2023/07/02 04:03:29;;;;;;;18.70;9.13;;;;;;;;;;5028726;28;20456;-82
2023/07/02 04:05:56;;;;;;;21.90;10.07;;;;;;;;;;5031860;28;20431;-82
2023/07/02 04:08:24;;;;;;;23.03;8.60;;;;;;;;;;5034272;28;20518;-82
2023/07/02 04:10:50;;;;;;;18.20;9.43;;;;;;;;;;5031230;28;20804;-83
2023/07/02 04:13:18;;;;;;;22.53;9.60;;;;;;;;;;5027093;28;20466;-82
2023/07/02 04:15:44;;;;;;;23.40;9.07;;;;;;;;;;5029179;28;20443;-81
2023/07/02 04:18:11;;;;;;;18.37;9.47;;;;;;;;;;5023395;28;20894;-82
2023/07/02 04:20:38;;;;;;;23.67;9.60;;;;;;;;;;5022359;28;20455;-82
2023/07/02 04:23:04;;;;;;;19.10;8.60;;;;;;;;;;5030918;28;20792;-82
2023/07/02 04:25:32;;;;;;;18.33;8.40;;;;;;;;;;5032838;28;20475;-81
2023/07/02 04:27:58;;;;;;;13.13;9.00;;;;;;;;;;5026400;28;20448;-82
2023/07/02 04:30:26;;;;;;;20.77;8.33;;;;;;;;;;5031419;28;20439;-82
2023/07/02 04:32:53;;;;;;;17.90;8.73;;;;;;;;;;5024799;28;20850;-81
2023/07/02 04:35:19;;;;;;;20.23;9.47;;;;;;;;;;5029693;28;20439;-82
2023/07/02 04:37:45;;;;;;;15.83;8.67;;;;;;;;;;5032780;28;20468;-81
2023/07/02 04:40:13;;;;;;;14.07;7.20;;;;;;;;;;5032725;28;20454;-82
2023/07/02 04:42:41;;;;;;;17.03;8.30;;;;;;;;;;5025391;28;20462;-81
2023/07/02 04:45:08;;;;;;;18.10;8.60;;;;;;;;;;5033035;28;20450;-82
2023/07/02 04:47:36;;;;;;;21.90;9.17;;;;;;;;;;5027777;28;20480;-82
2023/07/02 04:50:02;;;;;;;24.20;9.67;;;;;;;;;;5029544;28;20443;-81
2023/07/02 04:52:29;;;;;;;16.30;9.10;;;;;;;;;;5033773;28;20444;-81
2023/07/02 04:54:57;;;;;;;19.63;9.57;;;;;;;;;;5028053;28;20849;-83
2023/07/02 04:57:23;;;;;;;23.60;9.67;;;;;;;;;;5033459;28;20477;-82
2023/07/02 04:59:50;;;;;;;18.20;9.37;;;;;;;;;;5027983;28;20487;-82
2023/07/02 05:02:16;;;;;;;26.43;10.17;;;;;;;;;;5027982;28;20933;-82
2023/07/02 05:04:44;;;;;;;27.50;9.57;;;;;;;;;;5028870;28;20477;-82
2023/07/02 05:07:10;;;;;;;17.53;9.23;;;;;;;;;;5029637;28;20552;-82
2023/07/02 05:09:38;;;;;;;20.67;8.83;;;;;;;;;;5033293;28;20476;-82
2023/07/02 05:12:04;;;;;;;23.87;10.63;;;;;;;;;;5033350;28;20460;-81
2023/07/02 05:14:31;;;;;;;20.53;9.80;;;;;;;;;;5019585;28;20481;-82
2023/07/02 05:16:57;;;;;;;26.53;9.97;;;;;;;;;;5028201;28;20449;-82
2023/07/02 05:19:24;;;;;;;27.83;8.40;;;;;;;;;;5029755;28;21750;-81
2023/07/02 05:21:51;;;;;;;17.03;9.27;;;;;;;;;;5033711;28;20457;-81
2023/07/02 05:24:18;;;;;;;26.70;11.17;;;;;;;;;;5032056;28;20481;-81
2023/07/02 05:26:44;;;;;;;25.93;10.60;;;;;;;;;;5013798;28;20424;-81
2023/07/02 05:29:11;;;;;;;26.37;8.97;;;;;;;;;;5021110;28;20520;-82
2023/07/02 05:31:37;;;;;;;24.03;9.40;;;;;;;;;;5019360;28;20424;-81
2023/07/02 05:34:05;;;;;;;24.20;8.93;;;;;;;;;;5029387;28;20487;-82
2023/07/02 05:36:31;;;;;;;21.03;10.20;;;;;;;;;;5031561;28;20457;-81
2023/07/02 05:38:59;;;;;;;17.37;9.40;;;;;;;;;;5026814;28;20447;-81
2023/07/02 05:41:30;;;;;;;25.57;10.30;;;;;;;;;;5031101;28;20972;-81
2023/07/02 05:43:56;;;;;;;22.93;9.47;;;;;;;;;;5032308;28;20468;-81
2023/07/02 05:46:22;;;;;;;24.50;10.10;;;;;;;;;;5029095;28;20806;-81
2023/07/02 05:48:49;;;;;;;25.67;10.70;;;;;;;;;;5032629;28;20437;-81
2023/07/02 05:51:20;;;;;;;25.63;11.03;;;;;;;;;;5025484;28;20634;-81
2023/07/02 05:53:46;;;;;;;23.27;9.77;;;;;;;;;;5030643;28;20830;-81
2023/07/02 05:56:14;;;;;;;28.13;9.60;;;;;;;;;;5031529;28;20447;-81
2023/07/02 05:58:40;;;;;;;24.37;9.10;;;;;;;;;;5028049;28;20481;-82
2023/07/02 06:01:07;;;;;;;22.73;10.00;;;;;;;;;;5030870;28;20427;-82
2023/07/02 06:03:33;;;;;;;18.90;9.57;;;;;;;;;;5024315;28;20419;-82
2023/07/02 06:06:00;;;;;;;20.30;9.20;;;;;;;;;;5030037;28;20468;-81
2023/07/02 06:08:26;;;;;;;21.53;9.37;;;;;;;;;;5031742;28;20484;-82
2023/07/02 06:10:53;;;;;;;25.57;10.33;;;;;;;;;;5034689;28;20456;-81
2023/07/02 06:13:21;;;;;;;22.80;8.60;;;;;;;;;;5032090;28;20523;-82
2023/07/02 06:15:47;;;;;;;20.03;9.67;;;;;;;;;;5022871;28;20887;-81
2023/07/02 06:18:16;;;;;;;22.67;9.47;;;;;;;;;;5030340;28;20473;-81
2023/07/02 06:20:42;;;;;;;23.43;8.13;;;;;;;;;;5023466;28;20440;-82
2023/07/02 06:23:09;;;;;;;18.47;9.77;;;;;;;;;;5025288;28;20523;-82
2023/07/02 06:25:35;;;;;;;18.47;8.73;;;;;;;;;;5031581;28;20472;-82
2023/07/02 06:28:02;;;;;;;31.57;9.07;;;;;;;;;;5026906;28;20469;-80
2023/07/02 06:30:30;;;;;;;21.47;9.57;;;;;;;;;;5035571;28;20476;-81
2023/07/02 06:32:56;;;;;;;27.07;10.23;;;;;;;;;;5028349;28;20834;-81
2023/07/02 06:35:23;;;;;;;24.93;10.73;;;;;;;;;;5023078;28;20477;-81
2023/07/02 06:37:49;;;;;;;19.80;8.87;;;;;;;;;;5031792;28;20440;-82
2023/07/02 06:40:15;;;;;;;25.67;10.33;;;;;;;;;;5029328;28;20476;-81
2023/07/02 06:42:42;;;;;;;18.97;10.20;;;;;;;;;;5035765;28;20448;-82
2023/07/02 06:45:08;;;;;;;18.60;9.60;;;;;;;;;;5027773;28;20480;-82
2023/07/02 06:47:39;;;;;;;20.07;8.60;;;;;;;;;;5033183;28;20485;-80
2023/07/02 06:50:06;;;;;;;27.00;11.10;;;;;;;;;;5044447;28;20521;-81
2023/07/02 06:52:33;;;;;;;27.07;12.80;;;;;;;;;;5054000;28;20460;-81
2023/07/02 06:54:59;;;;;;;16.60;9.20;;;;;;;;;;5040146;28;20994;-80
2023/07/02 06:57:26;;;;;;;30.57;9.60;;;;;;;;;;5024007;28;21159;-80
2023/07/02 06:59:52;;;;;;;20.37;9.87;;;;;;;;;;5030168;28;20497;-81
2023/07/02 07:02:18;;;;;;;29.23;10.20;;;;;;;;;;5027660;28;20461;-80
2023/07/02 07:04:46;;;;;;;18.20;8.30;;;;;;;;;;5031264;28;20477;-80
2023/07/02 07:07:13;;;;;;;28.00;9.43;;;;;;;;;;5020825;28;20477;-81
2023/07/02 07:09:39;;;;;;;19.03;8.37;;;;;;;;;;5037983;28;20480;-81
2023/07/02 07:12:06;;;;;;;18.90;9.07;;;;;;;;;;5027789;28;20465;-82
2023/07/02 07:14:32;;;;;;;20.13;8.90;;;;;;;;;;5023080;28;20488;-80
2023/07/02 07:16:59;;;;;;;17.67;8.10;;;;;;;;;;5027806;28;20452;-82
2023/07/02 07:19:25;;;;;;;14.37;8.73;;;;;;;;;;5034056;28;20473;-81
2023/07/02 07:21:53;;;;;;;17.57;7.80;;;;;;;;;;5033029;28;20457;-82
2023/07/02 07:24:19;;;;;;;14.00;7.30;;;;;;;;;;5025913;28;20483;-82
2023/07/02 07:26:46;;;;;;;24.13;7.23;;;;;;;;;;5033744;28;21048;-83
2023/07/02 07:29:13;;;;;;;17.57;7.57;;;;;;;;;;5029739;28;20994;-82
2023/07/02 07:31:39;;;;;;;12.20;7.60;;;;;;;;;;5025444;28;20452;-82
2023/07/02 07:34:06;;;;;;;15.20;7.20;;;;;;;;;;5029632;28;20473;-83
2023/07/02 07:36:32;;;;;;;16.23;7.33;;;;;;;;;;5042171;28;20444;-81
2023/07/02 07:39:00;;;;;;;17.10;7.67;;;;;;;;;;5033128;28;21008;-82
2023/07/02 07:41:26;;;;;;;19.40;7.00;;;;;;;;;;5034033;28;20441;-82
2023/07/02 07:43:53;;;;;;;17.50;6.80;;;;;;;;;;5032817;28;20476;-81
2023/07/02 07:46:19;;;;;;;16.90;6.77;;;;;;;;;;5034201;28;20457;-81
2023/07/02 07:48:45;;;;;;;15.03;7.33;;;;;;;;;;5034492;28;20480;-81
2023/07/02 07:51:12;;;;;;;13.13;7.17;;;;;;;;;;5026271;28;20441;-81
2023/07/02 07:53:39;;;;;;;25.40;8.27;;;;;;;;;;5024064;28;20484;-82
2023/07/02 07:56:07;;;;;;;16.93;7.70;;;;;;;;;;5033137;28;20790;-81
2023/07/02 07:58:33;;;;;;;24.13;7.93;;;;;;;;;;5032169;28;20465;-82
2023/07/02 08:01:00;;;;;;;13.20;7.33;;;;;;;;;;5034193;28;20507;-81
2023/07/02 08:03:28;;;;;;;20.40;7.20;;;;;;;;;;5028249;28;20461;-83
2023/07/02 08:05:54;;;;;;;15.30;7.60;;;;;;;;;;5025616;28;20468;-80
2023/07/02 08:08:20;;;;;;;12.37;6.50;;;;;;;;;;5038047;28;20491;-81
2023/07/02 08:10:49;;;;;;;20.13;7.80;;;;;;;;;;5030013;28;20473;-81
2023/07/02 08:13:17;;;;;;;13.63;6.40;;;;;;;;;;5034404;28;20480;-82
2023/07/02 08:15:44;;;;;;;9.73;5.67;;;;;;;;;;5031535;28;20473;-80
2023/07/02 08:18:11;;;;;;;11.50;5.43;;;;;;;;;;5033911;28;20481;-80
2023/07/02 08:20:38;;;;;;;15.70;6.70;;;;;;;;;;5033480;28;20535;-81
2023/07/02 08:23:04;;;;;;;12.37;5.87;;;;;;;;;;5029579;28;20461;-81
2023/07/02 08:25:31;;;;;;;16.33;8.03;;;;;;;;;;5025894;28;20469;-80
2023/07/02 08:27:58;;;;;;;17.43;7.27;;;;;;;;;;5021212;28;20473;-82
2023/07/02 08:30:26;;;;;;;15.23;7.40;;;;;;;;;;5028011;28;20479;-81
2023/07/02 08:32:54;;;;;;;16.33;9.10;;;;;;;;;;5032257;28;20464;-81
2023/07/02 08:35:20;;;;;;;9.50;5.87;;;;;;;;;;5029223;28;20476;-81
2023/07/02 08:37:48;;;;;;;14.80;6.47;;;;;;;;;;5031804;28;20468;-81
2023/07/02 08:40:18;;;;;;;21.60;6.83;;;;;;;;;;5032071;28;20530;-81
2023/07/02 08:42:45;;;;;;;13.30;6.20;;;;;;;;;;5033635;28;20456;-81
2023/07/02 08:45:13;;;;;;;14.20;6.63;;;;;;;;;;5031235;28;20469;-82
2023/07/02 08:47:40;;;;;;;14.40;7.23;;;;;;;;;;5030239;28;20469;-81
2023/07/02 08:50:07;;;;;;;11.50;6.10;;;;;;;;;;5031734;28;20472;-81
2023/07/02 08:52:33;;;;;;;16.47;7.03;;;;;;;;;;5033187;28;20499;-82
2023/07/02 08:55:00;;;;;;;14.33;5.70;;;;;;;;;;5029510;28;20864;-81
2023/07/02 08:57:26;;;;;;;11.53;5.70;;;;;;;;;;5035108;28;20456;-80
2023/07/02 08:59:53;;;;;;;13.10;5.43;;;;;;;;;;5029051;28;20464;-81
2023/07/02 09:02:19;;;;;;;14.53;6.90;;;;;;;;;;5030952;28;20446;-81
2023/07/02 09:04:47;;;;;;;22.13;5.73;;;;;;;;;;5031807;28;20469;-81
2023/07/02 09:07:15;;;;;;;12.47;6.17;;;;;;;;;;5028272;28;20512;-81
2023/07/02 09:09:46;;;;;;;9.57;5.30;;;;;;;;;;5027708;28;20556;-81
2023/07/02 09:12:22;;;;;;;8.37;6.20;;;;;;;;;;5040211;28;20464;-81
2023/07/02 09:14:54;;;;;;;12.83;5.87;;;;;;;;;;5026177;28;20476;-80
2023/07/02 09:17:22;;;;;;;11.13;5.30;;;;;;;;;;5029723;28;20838;-81
2023/07/02 09:19:52;;;;;;;11.33;6.00;;;;;;;;;;5030274;28;20555;-80
2023/07/02 09:22:19;;;;;;;10.90;5.30;;;;;;;;;;5021908;28;20445;-81
2023/07/02 09:24:52;;;;;;;9.90;5.60;;;;;;;;;;5029859;28;20476;-81
2023/07/02 09:27:18;;;;;;;9.10;4.50;;;;;;;;;;5023347;28;20955;-81
2023/07/02 09:29:50;;;;;;;11.83;6.10;;;;;;;;;;5029163;28;21015;-81
2023/07/02 09:32:24;;;;;;;15.97;6.90;;;;;;;;;;5031459;28;20986;-82
2023/07/02 09:34:50;;;;;;;14.40;7.03;;;;;;;;;;5026834;28;20476;-81
2023/07/02 09:37:18;;;;;;;15.87;7.00;;;;;;;;;;5032843;28;20499;-81
2023/07/02 09:39:44;;;;;;;14.13;6.90;;;;;;;;;;5026848;28;20859;-81
2023/07/02 09:42:11;;;;;;;13.73;7.07;;;;;;;;;;5020838;28;20516;-81
2023/07/02 09:44:38;;;;;;;16.73;6.67;;;;;;;;;;5026385;28;20481;-81
2023/07/02 09:47:05;;;;;;;10.63;6.13;;;;;;;;;;5029101;28;20444;-81
2023/07/02 09:49:32;;;;;;;12.97;5.87;;;;;;;;;;5030856;28;20476;-81
2023/07/02 09:51:59;;;;;;;13.83;5.90;;;;;;;;;;5034661;28;20461;-81
2023/07/02 09:54:27;;;;;;;11.10;6.10;;;;;;;;;;5033431;28;20472;-81
2023/07/02 09:56:54;;;;;;;12.60;6.20;;;;;;;;;;5030910;28;20455;-81
2023/07/02 09:59:20;;;;;;;11.63;5.07;;;;;;;;;;5031812;28;20469;-81
2023/07/02 10:01:46;;;;;;;13.33;5.77;;;;;;;;;;5028909;28;20452;-81
2023/07/02 10:04:14;;;;;;;8.03;3.70;;;;;;;;;;5039644;28;20468;-81
2023/07/02 10:06:47;;;;;;;5.90;3.77;;;;;;;;;;5052734;28;20452;-82
2023/07/02 10:09:13;;;;;;;12.40;3.83;;;;;;;;;;5044946;28;20476;-81
2023/07/02 10:11:41;;;;;;;7.47;3.43;;;;;;;;;;5055954;28;20444;-81
2023/07/02 10:14:07;;;;;;;9.37;4.00;;;;;;;;;;5052074;28;20464;-81
2023/07/02 10:16:34;;;;;;;7.93;3.57;;;;;;;;;;5050750;28;20448;-81
2023/07/02 10:19:10;;;;;;;7.20;3.83;;;;;;;;;;5048427;28;20475;-81
2023/07/02 10:21:36;;;;;;;7.20;3.03;;;;;;;;;;5054108;28;20459;-81
2023/07/02 10:24:09;;;;;;;8.80;3.13;;;;;;;;;;5048084;28;20464;-80
2023/07/02 10:26:36;;;;;;;13.07;3.60;;;;;;;;;;5049659;28;20460;-81
2023/07/02 10:29:03;;;;;;;6.77;3.50;;;;;;;;;;5044472;28;20479;-81
2023/07/02 10:31:30;;;;;;;9.63;3.50;;;;;;;;;;5046611;28;20465;-81
2023/07/02 10:33:57;;;;;;;7.70;4.37;;;;;;;;;;5052384;28;20472;-80
2023/07/02 10:36:23;;;;;;;11.53;4.00;;;;;;;;;;5053764;28;20480;-81
2023/07/02 10:38:51;;;;;;;11.80;3.73;;;;;;;;;;5048235;28;20473;-81
2023/07/02 10:41:26;;;;;;;8.50;4.03;;;;;;;;;;5034813;28;20457;-81
2023/07/02 10:43:53;;;;;;;6.63;3.03;;;;;;;;;;5029279;28;20468;-80
2023/07/02 10:46:21;;;;;;;6.93;3.63;;;;;;;;;;5033487;28;20484;-81
2023/07/02 10:48:54;;;;;;;5.90;2.90;;;;;;;;;;5035448;28;20465;-81
2023/07/02 10:51:21;;;;;;;6.67;3.03;;;;;;;;;;5034188;28;20457;-81
2023/07/02 10:53:47;;;;;;;5.97;3.20;;;;;;;;;;5034249;28;20545;-81
2023/07/02 10:56:17;;;;;;;9.80;3.57;;;;;;;;;;5031983;28;20489;-80
2023/07/02 10:58:43;;;;;;;7.77;3.93;;;;;;;;;;5027695;28;20847;-81
2023/07/02 11:01:15;;;;;;;8.33;3.57;;;;;;;;;;5027568;28;20469;-80
2023/07/02 11:03:43;;;;;;;7.70;4.00;;;;;;;;;;5023391;28;20456;-81
2023/07/02 11:06:09;;;;;;;10.47;4.23;;;;;;;;;;5030845;28;20468;-81
2023/07/02 11:08:35;;;;;;;16.83;4.30;;;;;;;;;;5030064;28;20465;-81
2023/07/02 11:11:06;;;;;;;10.17;5.13;;;;;;;;;;5035432;28;20469;-81
2023/07/02 11:13:32;;;;;;;11.40;5.03;;;;;;;;;;5030839;28;20457;-81
2023/07/02 11:15:59;;;;;;;6.40;3.93;;;;;;;;;;5032291;28;20485;-81
2023/07/02 11:18:26;;;;;;;13.63;4.40;;;;;;;;;;5028561;28;20504;-81
2023/07/02 11:20:54;;;;;;;10.33;4.10;;;;;;;;;;5031619;28;20477;-81
2023/07/02 11:23:22;;;;;;;10.67;4.07;;;;;;;;;;5026338;28;20845;-81
2023/07/02 11:25:55;;;;;;;10.80;5.20;;;;;;;;;;5028401;28;20532;-81
2023/07/02 11:28:21;;;;;;;6.57;4.30;;;;;;;;;;5024669;28;20479;-81
2023/07/02 11:30:47;;;;;;;10.80;3.80;;;;;;;;;;5029584;28;20868;-81
2023/07/02 11:33:14;;;;;;;10.17;4.00;;;;;;;;;;5024451;28;20457;-81
2023/07/02 11:35:40;;;;;;;15.10;5.53;;;;;;;;;;5034478;28;20488;-81
2023/07/02 11:38:10;;;;;;;10.63;3.60;;;;;;;;;;5038103;28;20502;-81
2023/07/02 11:40:36;;;;;;;9.73;5.20;;;;;;;;;;5038795;28;20472;-81
2023/07/02 11:43:05;;;;;;;7.30;3.63;;;;;;;;;;5034781;28;20467;-80
2023/07/02 11:45:32;;;;;;;11.87;3.63;;;;;;;;;;5030909;28;20464;-81
2023/07/02 11:47:59;;;;;;;11.30;4.57;;;;;;;;;;5031869;28;20465;-81
2023/07/02 11:50:25;;;;;;;11.27;3.40;;;;;;;;;;5048660;28;20480;-81
2023/07/02 11:52:52;;;;;;;8.27;3.77;;;;;;;;;;5050252;28;20460;-81
2023/07/02 11:55:19;;;;;;;7.27;3.60;;;;;;;;;;5043981;28;20477;-80
2023/07/02 11:57:49;;;;;;;5.10;3.70;;;;;;;;;;5044128;28;20476;-80
2023/07/02 12:00:15;;;;;;;5.47;3.53;;;;;;;;;;5052958;28;21070;-81
2023/07/02 12:02:41;;;;;;;9.10;3.97;;;;;;;;;;5048424;28;20456;-80
2023/07/02 12:05:08;;;;;;;7.87;3.80;;;;;;;;;;5052545;28;20483;-81
2023/07/02 12:07:35;;;;;;;8.00;3.60;;;;;;;;;;5045988;28;20471;-81
2023/07/02 12:10:01;;;;;;;7.83;3.87;;;;;;;;;;5045103;28;20829;-81
2023/07/02 12:12:29;;;;;;;4.93;3.60;;;;;;;;;;5047675;28;20444;-81
2023/07/02 12:14:56;;;;;;;7.83;3.80;;;;;;;;;;5053376;28;20460;-81
2023/07/02 12:17:22;;;;;;;7.90;4.57;;;;;;;;;;5053858;28;20479;-80
2023/07/02 12:19:48;;;;;;;12.43;3.50;;;;;;;;;;5050548;28;20467;-81
2023/07/02 12:22:17;;;;;;;19.30;4.40;;;;;;;;;;5046429;28;20457;-81
2023/07/02 12:24:43;;;;;;;10.47;3.53;;;;;;;;;;5053233;28;20914;-80
2023/07/02 12:27:10;;;;;;;5.40;3.60;;;;;;;;;;5053597;28;20456;-81
2023/07/02 12:29:38;;;;;;;12.20;5.13;;;;;;;;;;5053314;28;20479;-81
2023/07/02 12:32:05;;;;;;;7.23;4.90;;;;;;;;;;5047951;28;20451;-82
2023/07/02 12:34:34;;;;;;;8.10;4.40;;;;;;;;;;5052054;28;20468;-81
2023/07/02 12:37:00;;;;;;;8.67;3.97;;;;;;;;;;5049596;28;20507;-81
2023/07/02 12:39:31;;;;;;;9.80;4.57;;;;;;;;;;5053464;28;20551;-80
2023/07/02 12:41:57;;;;;;;12.03;4.77;;;;;;;;;;5049946;28;20444;-81
2023/07/02 12:44:24;;;;;;;7.83;4.80;;;;;;;;;;5037569;28;20471;-81
2023/07/02 12:46:52;;;;;;;10.63;4.33;;;;;;;;;;5043437;28;20453;-82
2023/07/02 12:49:22;;;;;;;15.53;4.97;;;;;;;;;;5046494;28;20483;-81
2023/07/02 12:51:49;;;;;;;12.20;5.40;;;;;;;;;;5050593;28;20447;-81
2023/07/02 12:54:15;;;;;;;9.63;5.27;;;;;;;;;;5040773;28;21016;-82
2023/07/02 12:56:41;;;;;;;10.93;4.70;;;;;;;;;;5026866;28;20487;-80
2023/07/02 12:59:08;;;;;;;13.40;5.40;;;;;;;;;;5029989;28;20850;-83
2023/07/02 13:01:34;;;;;;;8.67;4.33;;;;;;;;;;5042713;28;20456;-82
2023/07/02 13:04:03;;;;;;;14.30;4.70;;;;;;;;;;5042967;28;20461;-80
2023/07/02 13:06:33;;;;;;;10.33;5.07;;;;;;;;;;5051656;28;20878;-81
2023/07/02 13:08:59;;;;;;;13.83;4.23;;;;;;;;;;5046552;28;20528;-81
2023/07/02 13:11:26;;;;;;;8.97;3.70;;;;;;;;;;5032424;28;20842;-82
2023/07/02 13:13:52;;;;;;;8.53;4.07;;;;;;;;;;5031427;28;20469;-82
2023/07/02 13:16:19;;;;;;;14.97;4.67;;;;;;;;;;5028389;28;20488;-82
2023/07/02 13:18:45;;;;;;;13.50;5.00;;;;;;;;;;5019357;28;20480;-81
2023/07/02 13:21:13;;;;;;;6.43;4.23;;;;;;;;;;5028885;28;20498;-81
2023/07/02 13:23:40;;;;;;;11.00;4.03;;;;;;;;;;5026249;28;20449;-80
2023/07/02 13:26:06;;;;;;;11.90;4.77;;;;;;;;;;5037667;28;20531;-82
2023/07/02 13:28:32;;;;;;;7.93;4.23;;;;;;;;;;5036060;28;20476;-82
2023/07/02 13:30:58;;;;;;;10.30;3.97;;;;;;;;;;5033845;28;20445;-82
2023/07/02 13:33:25;;;;;;;9.37;3.80;;;;;;;;;;5026474;28;20456;-82
2023/07/02 13:35:52;;;;;;;7.50;4.07;;;;;;;;;;5030201;28;20499;-81
2023/07/02 13:38:19;;;;;;;8.43;4.63;;;;;;;;;;5034791;28;20467;-81
2023/07/02 13:40:46;;;;;;;14.03;5.30;;;;;;;;;;5047146;28;20477;-81
2023/07/02 13:43:12;;;;;;;6.33;3.87;;;;;;;;;;5047765;28;20447;-80
2023/07/02 13:45:39;;;;;;;7.87;4.23;;;;;;;;;;5048977;28;20470;-81
2023/07/02 13:48:06;;;;;;;7.60;3.17;;;;;;;;;;5055680;28;20468;-81
2023/07/02 13:50:32;;;;;;;14.93;4.10;;;;;;;;;;5033070;28;20484;-82
2023/07/02 13:52:58;;;;;;;10.40;3.20;;;;;;;;;;5035740;28;20503;-82
2023/07/02 13:55:27;;;;;;;13.93;4.70;;;;;;;;;;5026336;28;20472;-81
2023/07/02 13:57:54;;;;;;;8.37;3.70;;;;;;;;;;5032241;28;20565;-81
2023/07/02 14:00:22;;;;;;;6.07;4.00;;;;;;;;;;5034603;28;20472;-81
2023/07/02 14:02:48;;;;;;;4.20;3.30;;;;;;;;;;5034114;28;20468;-81
2023/07/02 14:05:15;;;;;;;11.00;4.23;;;;;;;;;;5036054;28;20480;-82
2023/07/02 14:07:41;;;;;;;9.60;4.40;;;;;;;;;;5030275;28;20469;-80
2023/07/02 14:10:08;;;;;;;8.40;4.83;;;;;;;;;;5032384;28;20483;-81
2023/07/02 14:12:34;;;;;;;6.10;3.70;;;;;;;;;;5033483;28;20457;-81
2023/07/02 14:15:01;;;;;;;7.80;3.87;;;;;;;;;;5030811;28;20474;-81
2023/07/02 14:17:29;;;;;;;7.07;3.57;;;;;;;;;;5025474;28;20493;-80
2023/07/02 14:19:55;;;;;;;5.87;3.17;;;;;;;;;;5032664;28;20471;-82
2023/07/02 14:22:22;;;;;;;6.57;3.50;;;;;;;;;;5033572;28;20825;-82
2023/07/02 14:24:48;;;;;;;21.57;3.70;;;;;;;;;;5031945;28;20476;-80
2023/07/02 14:27:15;;;;;;;5.47;3.37;;;;;;;;;;5035938;28;20469;-82
2023/07/02 14:29:41;;;;;;;10.77;3.37;;;;;;;;;;5023165;28;20506;-80
2023/07/02 14:32:08;;;;;;;6.73;4.20;;;;;;;;;;5029848;28;20460;-81